CheckWX is a tool to help pilots better visualize weather data.  It is not intended as a substitute for an official pre-flight weather briefing.

15:05:29 UTC

KSGF METAR
Springfield-Branson National Airport
Springfield, Missouri, USA
Current

13 mins ago

KSGF 231452Z 00000KT 10SM VCTS OVC023 20/18 A3011 RMK AO2 LTG DSNT N AND NW RAE44 SLP186 P0001 60059 T02000183 51023
Observed
May-23 @ 14:52 UTC
Visibility
10 SM
Flight Rules
MVFR
Conditions
Area Thunderstorm
Cloud Levels
  • Overcast at 2,300' AGL
Temperature
20°C / 68°F
Dewpoint
18°C / 64°F
Humidity
88%
Altimeter
30.11" Hg
Pressure
1019.62 hPa
Current Rain
0.01"
Previous

1 hour ago

KSGF 231352Z 24008G15KT 210V270 10SM -RA FEW006 BKN024 OVC032 20/18 A3008 RMK AO2 LTG DSNT NW-NE RAB1256 TSE26 SLP174 P0005 T02000178
Observed
May-23 @ 13:52 UTC
Wind
  • 240° at 8 KTS
  • Gusting to 15 KTS
Visibility
10 SM
Flight Rules
MVFR
Conditions
Light Rain
Cloud Levels
  • Few at 600' AGL
  • Broken at 2,400' AGL
  • Overcast at 3,200' AGL
Temperature
20°C / 68°F
Dewpoint
18°C / 64°F
Humidity
88%
Altimeter
30.08" Hg
Pressure
1018.62 hPa
Current Rain
0.05"
Previous

1 hour ago

KSGF 231344Z 04010KT 10SM -RA SCT023 OVC032 19/18 A3008 RMK AO2 LTG DSNT NW-E RAB1256 TSE26 P0005 T01940183
Observed
May-23 @ 13:44 UTC
Wind
  • 040° at 10 KTS
Visibility
10 SM
Flight Rules
VFR
Conditions
Light Rain
Cloud Levels
  • Scattered at 2,300' AGL
  • Overcast at 3,200' AGL
Temperature
19°C / 66°F
Dewpoint
18°C / 64°F
Humidity
94%
Altimeter
30.08" Hg
Pressure
1018.62 hPa
Current Rain
0.05"